KARB/ARB METAR and TAF weather

Enter ICAO airport designator
Station Type Date Time Source
KARB METAR 2020/04/06 12:53 UTC NOAA

KARB 061253Z 00000KT 7SM HZ CLR 03/02 A3018 RMK AO2 SLP224 I1000 T00330022


Station Type Date Time Source
KARB Decoded METAR 2020/04/06 12:53 UTC NOAA

ANN ARBOR MUNICIPAL AIRPORT, MI, United States (KARB) 42-13N 083-45W 251M
Apr 06, 2020 - 08:53 AM EDT / 2020.04.06 1253 UTC
Wind: Calm:0
Visibility: 7 mile(s):0
Sky conditions: clear
Weather: haze
Temperature: 37.9 F (3.3 C)
Dew Point: 36.0 F (2.2 C)
Relative Humidity: 92%
Pressure (altimeter): 30.18 in. Hg (1022 hPa)
ob: KARB 061253Z 00000KT 7SM HZ CLR 03/02 A3018 RMK AO2 SLP224 I1000 T00330022
cycle: 13

Station Type Date Time Source
KARB TAF UTC NOAA

Error!

Example: see airport list